Time;durP1;ratioP1;P1;durP2;ratioP2;P2;SDS_P1;SDS_P2;PMS_P1;PMS_P2;Temp;Humidity;BMP_temperature;BMP_pressure;BME280_temperature;BME280_humidity;BME280_pressure;Samples;Min_cycle;Max_cycle;Signal;HPM_P1;HPM_P2
2023/01/29 00:01:08;;;;;;;48.63;27.25;;;3.40;99.90;;;;;;5021773;28;20041;-50
2023/01/29 00:03:35;;;;;;;45.38;25.75;;;3.40;99.90;;;;;;5056797;28;20029;-49
2023/01/29 00:06:05;;;;;;;44.28;26.30;;;3.40;99.90;;;;;;5057036;28;20033;-47
2023/01/29 00:08:33;;;;;;;45.90;25.55;;;3.30;99.90;;;;;;5058970;28;20033;-47
2023/01/29 00:11:04;;;;;;;43.95;25.60;;;3.20;99.90;;;;;;5019462;28;20060;-48
2023/01/29 00:13:30;;;;;;;45.55;28.20;;;3.20;99.90;;;;;;5061269;28;20099;-52
2023/01/29 00:15:57;;;;;;;43.88;27.48;;;3.30;99.90;;;;;;5061552;28;20064;-72
2023/01/29 00:18:24;;;;;;;48.50;25.75;;;3.20;99.90;;;;;;5058312;28;20036;-51
2023/01/29 00:20:50;;;;;;;44.05;26.38;;;3.30;99.90;;;;;;5056249;28;20477;-48
2023/01/29 00:23:16;;;;;;;45.90;26.50;;;3.30;99.90;;;;;;5056201;28;20036;-47
2023/01/29 00:25:42;;;;;;;41.45;25.05;;;3.30;99.90;;;;;;5056105;28;20029;-46
2023/01/29 00:28:08;;;;;;;46.17;26.42;;;3.40;99.90;;;;;;5056364;28;20365;-48
2023/01/29 00:30:35;;;;;;;48.80;29.02;;;3.40;99.90;;;;;;5055864;28;20500;-48
2023/01/29 00:33:01;;;;;;;49.40;27.58;;;3.30;99.90;;;;;;5055683;28;20528;-48
2023/01/29 00:35:27;;;;;;;49.20;30.45;;;3.30;99.90;;;;;;5056051;28;20060;-48
2023/01/29 00:37:56;;;;;;;47.58;28.65;;;3.30;99.90;;;;;;5055767;28;20053;-51
2023/01/29 00:40:23;;;;;;;53.50;31.15;;;3.30;99.90;;;;;;5055904;28;20027;-51
2023/01/29 00:45:35;;;;;;;60.90;35.33;;;3.30;99.90;;;;;;5055850;28;20036;-48
2023/01/29 00:48:02;;;;;;;59.63;36.08;;;3.40;99.90;;;;;;5037131;28;20385;-47
2023/01/29 00:50:28;;;;;;;62.05;34.70;;;3.40;99.90;;;;;;5053773;28;20048;-48
2023/01/29 00:52:54;;;;;;;58.42;34.67;;;3.30;99.90;;;;;;5055350;28;20037;-49
2023/01/29 00:55:20;;;;;;;55.53;32.65;;;3.30;99.90;;;;;;5055527;28;20017;-48
2023/01/29 00:57:45;;;;;;;60.90;36.10;;;3.30;99.90;;;;;;5055836;28;20127;-49
2023/01/29 01:00:14;;;;;;;56.70;32.58;;;3.40;99.90;;;;;;5055413;28;20465;-47
2023/01/29 01:05:24;;;;;;;52.00;29.30;;;3.30;99.90;;;;;;5055525;28;20032;-50
2023/01/29 01:07:52;;;;;;;43.60;25.80;;;3.30;99.90;;;;;;5020072;28;20037;-47
2023/01/29 01:10:26;;;;;;;47.72;29.75;;;3.20;99.90;;;;;;5055316;28;20033;-49
2023/01/29 01:12:54;;;;;;;47.10;28.50;;;3.30;99.90;;;;;;5054987;28;20078;-50
2023/01/29 01:15:21;;;;;;;45.92;25.65;;;3.30;99.90;;;;;;5055409;28;20025;-49
2023/01/29 01:17:47;;;;;;;46.03;25.27;;;3.10;99.90;;;;;;5052986;28;20087;-49
2023/01/29 01:20:14;;;;;;;46.97;27.65;;;3.30;99.90;;;;;;5054972;28;20438;-50
2023/01/29 01:22:40;;;;;;;49.45;27.73;;;3.30;99.90;;;;;;5054959;28;20465;-47
2023/01/29 01:25:06;;;;;;;47.72;29.27;;;3.20;99.90;;;;;;5055373;28;20078;-47
2023/01/29 01:27:33;;;;;;;48.28;26.33;;;3.30;99.90;;;;;;5052831;28;20037;-49
2023/01/29 01:29:59;;;;;;;52.20;30.00;;;3.30;99.90;;;;;;5055015;28;20067;-50
2023/01/29 01:32:25;;;;;;;47.67;28.10;;;3.30;99.90;;;;;;5054990;28;20080;-49
2023/01/29 01:34:51;;;;;;;47.35;27.83;;;3.30;99.90;;;;;;5054726;28;21300;-50
2023/01/29 01:37:17;;;;;;;52.30;29.88;;;3.30;99.90;;;;;;5054823;28;20020;-48
2023/01/29 01:39:49;;;;;;;50.85;29.80;;;3.40;99.90;;;;;;5054492;28;20119;-49
2023/01/29 01:42:15;;;;;;;46.72;29.38;;;3.40;99.90;;;;;;5054449;28;20036;-48
2023/01/29 01:44:59;;;;;;;56.33;30.60;;;3.40;99.90;;;;;;5052722;28;20029;-49
2023/01/29 01:47:30;;;;;;;44.15;26.90;;;3.40;99.90;;;;;;5054388;28;20087;-51
2023/01/29 01:50:02;;;;;;;42.00;25.08;;;3.40;99.90;;;;;;5052609;28;20044;-49
2023/01/29 01:52:30;;;;;;;45.47;27.60;;;3.40;99.90;;;;;;5054425;28;20090;-48
2023/01/29 01:54:57;;;;;;;48.92;28.20;;;3.40;99.90;;;;;;5054706;28;20139;-48
2023/01/29 01:57:27;;;;;;;48.05;27.38;;;3.30;99.90;;;;;;5056003;28;20029;-54
2023/01/29 02:00:09;;;;;;;47.15;27.02;;;3.20;99.90;;;;;;5058088;28;20029;-53
2023/01/29 02:10:54;;;;;;;52.08;28.95;;;3.30;99.90;;;;;;5057068;28;20048;-50
2023/01/29 02:13:21;;;;;;;43.45;25.77;;;3.30;99.90;;;;;;5054749;28;20033;-48
2023/01/29 02:15:47;;;;;;;47.67;29.55;;;3.30;99.90;;;;;;5054377;28;20033;-51
2023/01/29 02:18:19;;;;;;;50.38;27.88;;;3.30;99.90;;;;;;5054165;28;20025;-47
2023/01/29 02:21:01;;;;;;;52.50;27.05;;;3.20;99.90;;;;;;5053965;28;20520;-47
2023/01/29 02:24:14;;;;;;;46.72;27.75;;;3.30;99.90;;;;;;5054540;28;20029;-50
2023/01/29 02:27:09;;;;;;;45.97;26.45;;;3.30;99.90;;;;;;5011952;28;20104;-49
2023/01/29 02:29:59;;;;;;;46.75;26.33;;;3.30;99.90;;;;;;4953459;29;20066;-50
2023/01/29 02:32:57;;;;;;;44.78;23.20;;;3.20;99.90;;;;;;4953478;29;20133;-50
2023/01/29 02:35:36;;;;;;;45.97;28.58;;;3.20;99.90;;;;;;4953380;29;20031;-48
2023/01/29 02:38:28;;;;;;;46.80;27.02;;;3.30;99.90;;;;;;4953473;29;20488;-47
2023/01/29 02:41:23;;;;;;;49.20;26.88;;;3.30;99.90;;;;;;4953282;29;20043;-47
2023/01/29 02:44:02;;;;;;;44.63;26.88;;;3.30;99.90;;;;;;4949436;29;20395;-46
2023/01/29 02:46:52;;;;;;;48.03;27.95;;;3.30;99.90;;;;;;4953355;29;20109;-50
2023/01/29 02:49:30;;;;;;;50.47;27.77;;;3.50;99.90;;;;;;4953104;29;20491;-48
2023/01/29 02:51:58;;;;;;;47.70;27.90;;;3.40;99.90;;;;;;4953206;29;20126;-48
2023/01/29 02:54:38;;;;;;;45.85;25.45;;;3.40;99.90;;;;;;4953222;29;20503;-49
2023/01/29 02:57:15;;;;;;;52.17;29.38;;;3.30;99.90;;;;;;4924055;29;20049;-47
2023/01/29 02:59:47;;;;;;;45.03;24.20;;;3.30;99.90;;;;;;4953156;29;20357;-47
2023/01/29 03:02:18;;;;;;;49.00;27.77;;;3.30;99.90;;;;;;4953227;29;20126;-48
2023/01/29 03:04:50;;;;;;;53.27;31.37;;;3.30;99.90;;;;;;4971216;28;20046;-47
2023/01/29 03:07:40;;;;;;;51.25;28.27;;;3.40;99.90;;;;;;5042486;28;20044;-49
2023/01/29 03:10:58;;;;;;;52.58;29.48;;;3.40;99.90;;;;;;5053247;28;20066;-50
2023/01/29 03:13:39;;;;;;;52.30;27.98;;;3.40;99.90;;;;;;5030831;28;20541;-48
2023/01/29 03:16:30;;;;;;;49.78;28.55;;;3.40;99.90;;;;;;5031084;28;20034;-51
2023/01/29 03:19:35;;;;;;;46.05;24.83;;;3.30;99.90;;;;;;5030861;28;20478;-50
2023/01/29 03:22:03;;;;;;;47.35;27.55;;;3.30;99.90;;;;;;5030800;28;20119;-49
2023/01/29 03:33:16;;;;;;;48.03;26.85;;;3.40;99.90;;;;;;5030688;28;20125;-49
2023/01/29 03:35:50;;;;;;;48.67;28.23;;;3.50;99.90;;;;;;5030502;28;20065;-47
2023/01/29 03:38:17;;;;;;;50.55;27.45;;;3.50;99.90;;;;;;5030770;28;20033;-48
2023/01/29 03:41:06;;;;;;;46.35;26.67;;;3.50;99.90;;;;;;5013958;28;20041;-50
2023/01/29 03:43:39;;;;;;;49.85;28.45;;;3.40;99.90;;;;;;5030504;28;20034;-47
2023/01/29 03:46:28;;;;;;;47.00;26.83;;;3.50;99.90;;;;;;4997096;28;20144;-50
2023/01/29 03:49:16;;;;;;;39.65;21.73;;;3.60;99.90;;;;;;5040593;28;20128;-51
2023/01/29 03:52:12;;;;;;;47.88;26.25;;;3.50;99.90;;;;;;5052703;28;20109;-50
2023/01/29 03:54:42;;;;;;;43.85;26.52;;;3.40;99.90;;;;;;5016767;28;20075;-51
2023/01/29 03:57:14;;;;;;;52.95;28.70;;;3.30;99.90;;;;;;5050739;28;20112;-50
2023/01/29 04:00:15;;;;;;;46.28;25.90;;;3.40;99.90;;;;;;5052322;28;20029;-51
2023/01/29 04:02:45;;;;;;;50.30;27.42;;;3.30;99.90;;;;;;5052696;28;20368;-47
2023/01/29 04:05:17;;;;;;;46.53;26.98;;;3.30;99.90;;;;;;5052545;28;20108;-49
2023/01/29 04:07:43;;;;;;;;;;;3.40;99.90;;;;;;5052910;28;20132;-49
2023/01/29 04:10:13;;;;;;;41.95;23.95;;;3.40;99.90;;;;;;5052873;28;19912;-50
2023/01/29 04:12:50;;;;;;;44.63;27.65;;;3.40;99.90;;;;;;5052382;28;20481;-49
2023/01/29 04:15:17;;;;;;;52.60;28.58;;;3.30;99.90;;;;;;5052566;28;20489;-50
2023/01/29 04:17:55;;;;;;;47.33;26.35;;;3.30;99.90;;;;;;5052348;28;20052;-50
2023/01/29 04:20:22;;;;;;;50.13;27.88;;;3.40;99.90;;;;;;5052000;28;20522;-48
2023/01/29 04:22:50;;;;;;;48.70;28.85;;;3.30;99.90;;;;;;5052172;28;20027;-48
2023/01/29 04:25:25;;;;;;;35.30;18.38;;;3.40;99.90;;;;;;5052340;28;20032;-50
2023/01/29 04:28:20;;;;;;;51.45;29.65;;;3.30;99.90;;;;;;5052094;28;20469;-51
2023/01/29 04:31:07;;;;;;;47.53;28.92;;;3.40;99.90;;;;;;5052191;28;20025;-51
2023/01/29 04:33:44;;;;;;;51.33;28.92;;;3.40;99.90;;;;;;5052090;28;20049;-48
2023/01/29 04:36:24;;;;;;;46.67;28.25;;;3.40;99.90;;;;;;5052432;28;20029;-48
2023/01/29 04:39:16;;;;;;;43.30;25.52;;;3.30;99.90;;;;;;5055254;28;20047;-51
2023/01/29 04:41:53;;;;;;;40.15;22.50;;;3.30;99.90;;;;;;5056051;28;20385;-51
2023/01/29 04:44:48;;;;;;;47.55;26.30;;;3.20;99.90;;;;;;5053956;28;20068;-48
2023/01/29 04:47:38;;;;;;;48.78;27.80;;;3.30;99.90;;;;;;4997483;28;20104;-50
2023/01/29 04:50:42;;;;;;;44.15;24.45;;;3.30;99.90;;;;;;4997520;28;20073;-48
2023/01/29 04:53:19;;;;;;;44.95;25.92;;;3.40;99.90;;;;;;5010817;28;20057;-49
2023/01/29 04:55:54;;;;;;;47.42;25.63;;;3.40;99.90;;;;;;5013817;28;20048;-50
2023/01/29 04:58:41;;;;;;;52.17;28.15;;;3.30;99.90;;;;;;4981315;28;20045;-49
2023/01/29 05:01:12;;;;;;;51.75;29.33;;;3.30;99.90;;;;;;5013507;28;20057;-48
2023/01/29 05:03:41;;;;;;;48.00;28.33;;;3.30;99.90;;;;;;4997204;28;20076;-50
2023/01/29 05:06:09;;;;;;;43.60;25.55;;;3.50;99.90;;;;;;5013603;28;20081;-47
2023/01/29 05:08:38;;;;;;;45.55;26.52;;;3.40;99.90;;;;;;5013546;28;20034;-48
2023/01/29 05:11:04;;;;;;;44.15;26.70;;;3.40;99.90;;;;;;4997185;28;20121;-47
2023/01/29 05:13:31;;;;;;;48.03;26.50;;;3.40;99.90;;;;;;5013432;28;20049;-51
2023/01/29 05:16:05;;;;;;;41.35;24.00;;;3.40;99.90;;;;;;5013157;28;20026;-48
2023/01/29 05:18:31;;;;;;;45.60;27.13;;;3.50;99.90;;;;;;5013272;28;20033;-50
2023/01/29 05:21:01;;;;;;;45.60;26.73;;;3.40;99.90;;;;;;4996840;28;20113;-49
2023/01/29 05:23:26;;;;;;;48.90;27.25;;;3.50;99.90;;;;;;5022297;28;20045;-49
2023/01/29 05:25:52;;;;;;;44.90;27.25;;;3.30;99.90;;;;;;5055110;28;20037;-50
2023/01/29 05:28:18;;;;;;;45.83;26.35;;;3.30;99.90;;;;;;5055230;28;20037;-48
2023/01/29 05:30:46;;;;;;;39.40;23.83;;;3.30;99.90;;;;;;5055235;28;20025;-48
2023/01/29 05:33:30;;;;;;;44.80;26.25;;;3.10;99.90;;;;;;5054959;28;20053;-49
2023/01/29 05:35:58;;;;;;;45.80;25.25;;;3.10;99.90;;;;;;5035031;28;20045;-47
2023/01/29 05:38:24;;;;;;;26.73;14.63;;;3.10;99.90;;;;;;5055042;28;20052;-50
2023/01/29 05:40:50;;;;;;;44.17;24.88;;;3.00;99.90;;;;;;5054580;28;20033;-49
2023/01/29 05:43:22;;;;;;;40.28;23.10;;;3.10;99.90;;;;;;5054949;28;20040;-49
2023/01/29 05:45:58;;;;;;;45.58;25.85;;;3.00;99.90;;;;;;5054805;28;20044;-48
2023/01/29 05:48:26;;;;;;;41.53;25.40;;;3.00;99.90;;;;;;5054103;28;20091;-51
2023/01/29 05:50:52;;;;;;;44.80;26.52;;;3.00;99.90;;;;;;5054513;28;20116;-47
2023/01/29 05:53:18;;;;;;;43.78;25.48;;;3.10;99.90;;;;;;5054394;28;20116;-48
2023/01/29 05:55:45;;;;;;;42.28;25.88;;;3.20;99.90;;;;;;5054463;28;20025;-51
2023/01/29 05:58:11;;;;;;;39.92;23.98;;;3.20;99.90;;;;;;5054613;28;20116;-50
2023/01/29 06:00:37;;;;;;;42.80;22.48;;;3.30;99.90;;;;;;5054284;28;20029;-49
2023/01/29 06:03:03;;;;;;;45.55;26.00;;;3.20;99.90;;;;;;5035709;28;20040;-47
2023/01/29 06:05:29;;;;;;;46.97;25.55;;;3.10;99.90;;;;;;5054585;28;20104;-50
2023/01/29 06:07:55;;;;;;;43.20;24.40;;;3.20;99.90;;;;;;5054175;28;20041;-48
2023/01/29 06:10:20;;;;;;;44.35;24.38;;;3.30;99.90;;;;;;5035646;28;20037;-48
2023/01/29 06:12:46;;;;;;;45.22;26.52;;;3.30;99.90;;;;;;5035671;28;20121;-48
2023/01/29 06:15:14;;;;;;;42.22;22.80;;;3.40;99.90;;;;;;5054070;28;20025;-48
2023/01/29 06:17:40;;;;;;;45.25;25.55;;;3.40;99.90;;;;;;5054212;28;20409;-48
2023/01/29 06:20:08;;;;;;;40.25;25.25;;;3.30;99.90;;;;;;5053816;28;20485;-50
2023/01/29 06:22:34;;;;;;;44.97;24.92;;;3.30;99.90;;;;;;5054179;28;20025;-49
2023/01/29 06:24:59;;;;;;;44.10;25.90;;;3.30;99.90;;;;;;5054397;28;20362;-51
2023/01/29 06:27:25;;;;;;;44.35;25.13;;;3.30;99.90;;;;;;5053731;28;20166;-50
2023/01/29 06:29:51;;;;;;;46.33;26.48;;;3.40;99.90;;;;;;5052778;28;20110;-49
2023/01/29 06:32:17;;;;;;;43.13;25.27;;;3.50;99.90;;;;;;5051505;28;20055;-48
2023/01/29 06:34:42;;;;;;;42.55;24.63;;;3.50;99.90;;;;;;5053504;28;20021;-49
2023/01/29 06:37:08;;;;;;;42.90;25.05;;;3.40;99.90;;;;;;5056097;28;20028;-50
2023/01/29 06:39:34;;;;;;;52.47;29.88;;;3.60;99.90;;;;;;5023710;28;20032;-51
2023/01/29 06:41:59;;;;;;;51.55;29.65;;;3.50;99.90;;;;;;5058495;28;20029;-53
2023/01/29 06:44:25;;;;;;;59.15;35.15;;;3.50;99.90;;;;;;5057765;28;20029;-51
2023/01/29 06:46:51;;;;;;;61.03;32.92;;;3.60;99.90;;;;;;5058642;28;20039;-51
2023/01/29 06:49:17;;;;;;;51.75;29.20;;;3.40;99.90;;;;;;5055655;28;20041;-49
2023/01/29 06:51:42;;;;;;;51.92;29.33;;;3.50;99.90;;;;;;5054616;28;20036;-53
2023/01/29 06:54:09;;;;;;;49.58;29.25;;;3.50;99.90;;;;;;5053791;28;20037;-51
2023/01/29 06:56:35;;;;;;;64.32;33.08;;;3.50;99.90;;;;;;5065565;28;20029;-53
2023/01/29 06:59:01;;;;;;;54.47;28.67;;;3.30;99.90;;;;;;5053065;28;20098;-47
2023/01/29 07:01:27;;;;;;;72.90;38.55;;;3.30;99.90;;;;;;5052475;28;20033;-48
2023/01/29 07:03:53;;;;;;;60.30;32.40;;;3.30;99.90;;;;;;5053298;28;20028;-51
2023/01/29 07:06:19;;;;;;;56.92;32.63;;;3.40;99.90;;;;;;5052473;28;20082;-52
2023/01/29 07:08:45;;;;;;;60.92;33.67;;;3.50;99.90;;;;;;5041244;28;20515;-51
2023/01/29 07:11:11;;;;;;;50.53;28.50;;;3.60;99.90;;;;;;5034428;28;20127;-51
2023/01/29 07:13:37;;;;;;;45.90;26.33;;;3.50;99.90;;;;;;5042976;28;20128;-50
2023/01/29 07:16:04;;;;;;;48.13;26.65;;;3.50;99.90;;;;;;5051793;28;20115;-51
2023/01/29 07:18:31;;;;;;;46.20;26.42;;;3.40;99.90;;;;;;5051424;28;20116;-48
2023/01/29 07:20:57;;;;;;;46.38;26.42;;;3.30;99.90;;;;;;5052814;28;20025;-51
2023/01/29 07:23:23;;;;;;;42.90;25.00;;;3.30;99.90;;;;;;5042160;28;20482;-52
2023/01/29 07:25:49;;;;;;;38.55;22.55;;;3.30;99.90;;;;;;5031089;28;20032;-50
2023/01/29 07:28:16;;;;;;;46.42;25.27;;;3.30;99.90;;;;;;5052530;28;20473;-51
2023/01/29 07:30:42;;;;;;;40.78;22.83;;;3.30;99.90;;;;;;5049634;28;20079;-48
2023/01/29 07:33:09;;;;;;;44.88;25.92;;;3.20;99.90;;;;;;5051895;28;20056;-49
2023/01/29 07:35:40;;;;;;;52.33;28.38;;;3.10;99.90;;;;;;5052677;28;20449;-49
2023/01/29 07:38:07;;;;;;;40.72;21.77;;;3.20;99.90;;;;;;5053354;28;20033;-50
2023/01/29 07:40:33;;;;;;;51.53;27.85;;;3.30;99.90;;;;;;5052517;28;20025;-50
2023/01/29 07:43:00;;;;;;;45.42;27.52;;;3.30;99.90;;;;;;5052976;28;20538;-50
2023/01/29 07:45:26;;;;;;;49.65;27.42;;;3.40;99.90;;;;;;5053021;28;20018;-50
2023/01/29 07:47:53;;;;;;;46.17;27.02;;;3.50;99.90;;;;;;5052789;28;20041;-47
2023/01/29 07:50:22;;;;;;;49.10;28.23;;;3.50;99.90;;;;;;5052815;28;20071;-49
2023/01/29 07:52:47;;;;;;;45.72;27.13;;;3.60;99.90;;;;;;5052574;28;20025;-50
2023/01/29 07:55:13;;;;;;;51.58;29.13;;;3.40;99.90;;;;;;5052772;28;20158;-49
2023/01/29 07:57:39;;;;;;;51.60;30.80;;;3.50;99.90;;;;;;5084271;28;20037;-48
2023/01/29 08:00:05;;;;;;;47.47;27.50;;;3.50;99.90;;;;;;5052689;28;20029;-50
2023/01/29 08:02:31;;;;;;;47.65;29.10;;;3.50;99.90;;;;;;5067206;28;20040;-49
2023/01/29 08:04:56;;;;;;;47.50;27.73;;;3.50;99.90;;;;;;5052856;28;20033;-47
2023/01/29 08:07:22;;;;;;;46.35;28.35;;;3.60;99.90;;;;;;5052584;28;20116;-49
2023/01/29 08:09:48;;;;;;;79.97;46.40;;;3.70;99.90;;;;;;5052292;28;20060;-49
2023/01/29 08:12:13;;;;;;;55.53;29.80;;;3.60;99.90;;;;;;5088223;28;20086;-48
2023/01/29 08:14:39;;;;;;;48.83;27.45;;;3.40;99.90;;;;;;5059947;28;20087;-50
2023/01/29 08:17:05;;;;;;;56.38;32.83;;;3.40;99.90;;;;;;5059823;28;20035;-47
2023/01/29 08:19:31;;;;;;;49.92;27.75;;;3.50;99.90;;;;;;5059703;28;20115;-48
2023/01/29 08:21:57;;;;;;;60.13;31.65;;;3.30;99.90;;;;;;5059781;28;20029;-48
2023/01/29 08:24:22;;;;;;;59.03;32.35;;;3.40;99.90;;;;;;5058620;28;20380;-51
2023/01/29 08:26:48;;;;;;;55.42;33.70;;;3.40;99.90;;;;;;5087648;28;20130;-50
2023/01/29 08:29:14;;;;;;;45.85;28.58;;;3.50;99.90;;;;;;5055609;28;20029;-51
2023/01/29 08:31:39;;;;;;;42.58;26.52;;;3.50;99.90;;;;;;5053999;28;20029;-49
2023/01/29 08:34:05;;;;;;;41.85;22.17;;;3.40;99.90;;;;;;5053883;28;20524;-51
2023/01/29 08:36:31;;;;;;;47.15;28.27;;;3.40;99.90;;;;;;5053378;28;20021;-48
2023/01/29 08:38:57;;;;;;;41.38;22.13;;;3.50;99.90;;;;;;5033193;28;20431;-49
2023/01/29 08:41:22;;;;;;;44.13;26.40;;;3.40;99.90;;;;;;5055508;28;20107;-48
2023/01/29 08:43:48;;;;;;;43.35;25.38;;;3.30;99.90;;;;;;5054879;28;20025;-51
2023/01/29 08:46:14;;;;;;;40.88;21.50;;;3.30;99.90;;;;;;5036653;28;20510;-49
2023/01/29 08:48:39;;;;;;;47.25;26.67;;;3.40;99.90;;;;;;5034452;28;20052;-49
2023/01/29 08:51:05;;;;;;;45.00;26.23;;;3.50;99.90;;;;;;5055250;28;20021;-55
2023/01/29 08:53:31;;;;;;;38.15;21.48;;;3.50;99.90;;;;;;5067257;28;20040;-48
2023/01/29 08:55:57;;;;;;;43.80;23.98;;;3.50;99.90;;;;;;5051347;28;20516;-49
2023/01/29 08:58:23;;;;;;;40.60;23.38;;;3.40;99.90;;;;;;5053817;28;20057;-49
2023/01/29 09:00:48;;;;;;;31.45;19.00;;;3.40;99.90;;;;;;5019702;28;20120;-47
2023/01/29 09:03:14;;;;;;;41.60;23.25;;;3.30;99.90;;;;;;5036520;28;20048;-51
2023/01/29 09:05:40;;;;;;;46.65;27.17;;;3.40;99.90;;;;;;5055130;28;20063;-49
2023/01/29 09:08:08;;;;;;;36.10;19.70;;;3.50;99.90;;;;;;5014961;28;20051;-49
2023/01/29 09:10:34;;;;;;;47.08;26.42;;;3.40;99.90;;;;;;5030632;28;20045;-47
2023/01/29 09:13:00;;;;;;;53.45;29.23;;;3.70;99.90;;;;;;5052097;28;20074;-49
2023/01/29 09:15:26;;;;;;;50.40;28.10;;;3.80;99.90;;;;;;5056769;28;20029;-50
2023/01/29 09:17:51;;;;;;;55.78;33.40;;;3.70;99.90;;;;;;5039554;28;20077;-50
2023/01/29 09:20:18;;;;;;;58.70;34.20;;;3.80;99.90;;;;;;5056072;28;20501;-50
2023/01/29 09:22:44;;;;;;;42.67;26.75;;;3.90;99.90;;;;;;5052785;28;20033;-48
2023/01/29 09:25:10;;;;;;;49.22;29.20;;;4.00;99.90;;;;;;5057994;28;20508;-49
2023/01/29 09:27:36;;;;;;;28.67;15.23;;;4.00;99.90;;;;;;5053816;28;20041;-48
2023/01/29 09:30:03;;;;;;;38.15;19.67;;;3.70;99.90;;;;;;5058876;28;20025;-48
2023/01/29 09:32:29;;;;;;;46.35;26.45;;;3.80;99.90;;;;;;5049673;28;20080;-49
2023/01/29 09:34:56;;;;;;;40.83;23.15;;;3.70;99.90;;;;;;5034404;28;20112;-49
2023/01/29 09:37:22;;;;;;;45.13;26.20;;;3.70;99.90;;;;;;5057548;28;20044;-51
2023/01/29 09:39:48;;;;;;;36.60;17.98;;;3.60;99.90;;;;;;5050574;28;20060;-49
2023/01/29 09:42:38;;;;;;;40.03;25.23;;;3.60;99.90;;;;;;5052817;28;20040;-47
2023/01/29 09:45:23;;;;;;;42.97;24.25;;;3.60;99.90;;;;;;5048368;28;20025;-49
2023/01/29 09:47:50;;;;;;;41.08;25.05;;;3.80;99.90;;;;;;5023144;28;20461;-49
2023/01/29 09:50:33;;;;;;;42.10;25.52;;;3.60;99.90;;;;;;5027758;28;20040;-48
2023/01/29 09:53:16;;;;;;;43.05;25.48;;;3.80;99.90;;;;;;5025090;28;20047;-47
2023/01/29 09:55:50;;;;;;;43.63;25.63;;;3.90;99.90;;;;;;5022723;28;20394;-51
2023/01/29 09:58:26;;;;;;;36.00;23.42;;;4.10;99.90;;;;;;5025936;28;20386;-48
2023/01/29 10:01:20;;;;;;;46.35;28.38;;;4.30;99.90;;;;;;5028029;28;20116;-51
2023/01/29 10:04:20;;;;;;;45.17;26.52;;;4.50;99.90;;;;;;5011465;28;20537;-48
2023/01/29 10:07:20;;;;;;;45.72;28.05;;;4.50;99.90;;;;;;5006834;28;20030;-50
2023/01/29 10:09:46;;;;;;;52.30;31.55;;;4.40;99.90;;;;;;4993986;28;20050;-48
2023/01/29 10:12:27;;;;;;;56.35;31.15;;;4.50;99.90;;;;;;4995140;28;20228;-49
2023/01/29 10:15:05;;;;;;;104.85;49.97;;;4.20;99.90;;;;;;5010002;28;20361;-51
2023/01/29 10:18:05;;;;;;;66.55;35.63;;;4.50;99.90;;;;;;5011339;28;20026;-55
2023/01/29 10:20:55;;;;;;;39.78;23.83;;;4.50;99.90;;;;;;5031166;28;20048;-51
2023/01/29 10:23:31;;;;;;;48.47;27.83;;;4.50;99.90;;;;;;5029608;28;20029;-47
2023/01/29 10:25:57;;;;;;;51.90;26.30;;;4.50;99.90;;;;;;5029932;28;20425;-51
2023/01/29 10:28:45;;;;;;;51.92;27.70;;;4.20;99.90;;;;;;5029725;28;20041;-50
2023/01/29 10:31:16;;;;;;;48.05;23.80;;;4.20;99.90;;;;;;5028807;28;20037;-51
2023/01/29 10:33:53;;;;;;;44.85;27.70;;;4.20;99.90;;;;;;5007047;28;20085;-49
2023/01/29 10:36:25;;;;;;;40.88;24.00;;;4.20;99.90;;;;;;5029821;28;20135;-48
2023/01/29 10:38:52;;;;;;;50.13;27.73;;;4.40;99.90;;;;;;5013618;28;20060;-48
2023/01/29 10:41:48;;;;;;;42.72;25.77;;;4.40;99.90;;;;;;5049836;28;20032;-51
2023/01/29 10:44:35;;;;;;;43.17;24.48;;;4.60;99.90;;;;;;5053574;28;20150;-48
2023/01/29 10:47:35;;;;;;;44.63;25.00;;;4.60;99.90;;;;;;5050493;28;20071;-51
2023/01/29 10:50:01;;;;;;;42.65;24.60;;;4.60;99.90;;;;;;5060981;28;20083;-48
2023/01/29 10:52:37;;;;;;;39.25;22.85;;;4.50;99.90;;;;;;5056888;28;20028;-48
2023/01/29 10:55:29;;;;;;;40.00;23.70;;;4.40;99.90;;;;;;5060388;28;20495;-51
2023/01/29 10:58:14;;;;;;;50.55;28.65;;;4.50;99.90;;;;;;5010619;28;20042;-48
2023/01/29 11:00:41;;;;;;;38.30;24.33;;;4.60;99.90;;;;;;5010690;28;20045;-50
2023/01/29 11:03:17;;;;;;;45.30;25.48;;;4.60;99.90;;;;;;5009753;28;20514;-48
2023/01/29 11:06:03;;;;;;;69.40;38.38;;;4.60;99.90;;;;;;5009904;28;20474;-49
2023/01/29 11:08:37;;;;;;;44.47;25.58;;;4.50;99.90;;;;;;4999253;28;20045;-48
2023/01/29 11:11:13;;;;;;;58.58;32.50;;;4.30;99.90;;;;;;5010265;28;20054;-50
2023/01/29 11:13:49;;;;;;;42.63;24.80;;;4.30;99.90;;;;;;5009959;28;20033;-47
2023/01/29 11:16:15;;;;;;;34.35;21.55;;;4.40;99.90;;;;;;5007335;28;20042;-47
2023/01/29 11:18:53;;;;;;;48.28;27.95;;;4.30;99.90;;;;;;5006852;28;20038;-49
2023/01/29 11:21:20;;;;;;;45.63;22.95;;;4.30;99.90;;;;;;5009701;28;20073;-49
2023/01/29 11:23:45;;;;;;;45.45;26.38;;;4.10;99.90;;;;;;5009683;28;20437;-48
2023/01/29 11:26:16;;;;;;;36.45;22.15;;;4.20;99.90;;;;;;5010422;28;20025;-49
2023/01/29 11:28:49;;;;;;;40.38;23.60;;;4.30;99.90;;;;;;5009434;28;21017;-50
2023/01/29 11:31:35;;;;;;;40.10;23.75;;;4.30;99.90;;;;;;5009776;28;20088;-51
2023/01/29 11:34:55;;;;;;;40.05;23.33;;;4.40;99.90;;;;;;4976406;28;20045;-50
2023/01/29 11:37:20;;;;;;;36.35;21.88;;;4.40;99.90;;;;;;5028066;28;20033;-50
2023/01/29 11:39:46;;;;;;;40.13;22.77;;;4.30;99.90;;;;;;5015291;28;20059;-48
2023/01/29 11:42:20;;;;;;;36.38;18.95;;;4.40;99.90;;;;;;5021074;28;20052;-49
2023/01/29 11:44:46;;;;;;;38.20;22.80;;;4.20;99.90;;;;;;5022090;28;20038;-50
2023/01/29 11:47:15;;;;;;;36.47;19.60;;;4.30;99.90;;;;;;5031820;28;20444;-49
2023/01/29 11:49:59;;;;;;;42.70;23.38;;;4.30;99.90;;;;;;5011137;28;20053;-50
2023/01/29 11:52:34;;;;;;;38.33;22.58;;;4.40;99.90;;;;;;5023052;28;20529;-49
2023/01/29 11:55:20;;;;;;;38.75;21.77;;;4.50;99.90;;;;;;4977935;28;20042;-49
2023/01/29 11:57:56;;;;;;;44.58;25.88;;;4.50;99.90;;;;;;4981675;28;20482;-46
2023/01/29 12:00:25;;;;;;;36.70;24.75;;;4.60;99.90;;;;;;4980575;28;20023;-46
2023/01/29 12:03:06;;;;;;;39.03;22.55;;;4.60;99.90;;;;;;4980314;28;20034;-47
2023/01/29 12:05:32;;;;;;;35.75;21.40;;;4.40;99.90;;;;;;4984012;28;20049;-50
2023/01/29 12:08:01;;;;;;;36.63;22.23;;;4.30;99.90;;;;;;4986683;28;20038;-49
2023/01/29 12:10:40;;;;;;;42.78;23.83;;;4.40;99.90;;;;;;4997700;28;20048;-49
2023/01/29 12:13:09;;;;;;;36.20;21.88;;;4.50;99.90;;;;;;5029375;28;20044;-48
2023/01/29 12:15:40;;;;;;;37.67;22.63;;;4.30;99.90;;;;;;5034760;28;20052;-49
2023/01/29 12:18:24;;;;;;;37.15;22.40;;;4.30;99.90;;;;;;5041151;28;20025;-50
2023/01/29 12:20:55;;;;;;;35.30;21.30;;;4.30;99.90;;;;;;5017570;28;20042;-46
2023/01/29 12:23:45;;;;;;;40.80;24.35;;;4.50;99.90;;;;;;5019186;28;20037;-46
2023/01/29 12:26:18;;;;;;;39.47;23.88;;;4.50;99.90;;;;;;5032944;28;20037;-48
2023/01/29 12:29:08;;;;;;;38.65;23.13;;;4.50;99.90;;;;;;5053471;28;20045;-47
2023/01/29 12:32:04;;;;;;;38.35;22.80;;;4.60;99.90;;;;;;5040955;28;20048;-47
2023/01/29 12:34:33;;;;;;;41.30;25.92;;;4.60;99.90;;;;;;5039802;28;20025;-47
2023/01/29 12:37:19;;;;;;;42.35;22.38;;;4.50;99.90;;;;;;5040653;28;20435;-51
2023/01/29 12:39:45;;;;;;;38.55;22.95;;;4.40;99.90;;;;;;5041587;28;20032;-51
2023/01/29 12:42:13;;;;;;;34.22;20.83;;;4.50;99.90;;;;;;5037053;28;20099;-46
2023/01/29 12:44:46;;;;;;;42.28;22.25;;;4.50;99.90;;;;;;5041234;28;20032;-47
2023/01/29 12:47:30;;;;;;;42.15;23.95;;;4.50;99.90;;;;;;5046226;28;20028;-50
2023/01/29 12:50:05;;;;;;;39.53;21.83;;;4.70;99.90;;;;;;5040433;28;20128;-51
2023/01/29 12:53:00;;;;;;;35.75;22.08;;;4.90;99.90;;;;;;5036605;28;20033;-49
2023/01/29 12:55:44;;;;;;;37.28;21.88;;;5.00;99.90;;;;;;5044053;28;20029;-46
2023/01/29 12:58:20;;;;;;;37.83;23.40;;;5.10;99.90;;;;;;5040123;28;20038;-48
2023/01/29 13:00:50;;;;;;;36.67;22.77;;;5.00;99.90;;;;;;5045338;28;20033;-48
2023/01/29 13:03:18;;;;;;;33.25;19.52;;;5.30;99.90;;;;;;5016182;28;20128;-48
2023/01/29 13:05:51;;;;;;;35.63;22.63;;;5.20;99.90;;;;;;5015268;28;20552;-50
2023/01/29 13:08:25;;;;;;;35.78;20.38;;;5.30;99.90;;;;;;4994975;28;20585;-48
2023/01/29 13:10:53;;;;;;;36.45;21.48;;;5.30;99.90;;;;;;5015183;28;20030;-49
2023/01/29 13:13:37;;;;;;;35.53;20.63;;;5.20;99.90;;;;;;5014732;28;20070;-50
2023/01/29 13:16:08;;;;;;;31.95;19.40;;;5.00;99.90;;;;;;5009602;28;20037;-49
2023/01/29 13:18:54;;;;;;;39.70;23.33;;;4.90;99.90;;;;;;5018694;28;20038;-48
2023/01/29 13:21:28;;;;;;;34.30;21.65;;;4.80;99.90;;;;;;5000850;28;20038;-49
2023/01/29 13:24:03;;;;;;;39.03;22.65;;;5.00;99.90;;;;;;4981765;28;20042;-50
2023/01/29 13:26:30;;;;;;;36.30;22.55;;;5.00;99.90;;;;;;5018305;28;20061;-48
2023/01/29 13:28:56;;;;;;;34.35;21.83;;;5.10;99.90;;;;;;5000891;28;20569;-51